createdAt,value
2018-12-06T00:00:21.944Z,100930.09
2018-12-06T00:02:51.481Z,100925.44
2018-12-06T00:05:20.173Z,100930.36
2018-12-06T00:07:59.993Z,100927.02
2018-12-06T00:10:28.784Z,100928.47
2018-12-06T00:12:57.779Z,100927.53
2018-12-06T00:15:28.955Z,100926.44
2018-12-06T00:17:57.918Z,100919.56
2018-12-06T00:20:27.732Z,100928.02
2018-12-06T00:22:57.365Z,100919.56
2018-12-06T00:25:26.145Z,100921.98
2018-12-06T00:27:54.906Z,100915.02
2018-12-06T00:34:00.377Z,100919.78
2018-12-06T00:36:29.238Z,100915.89
2018-12-06T00:38:58.205Z,100905.07
2018-12-06T00:41:27.998Z,100902.30
2018-12-06T00:43:56.807Z,100904.33
2018-12-06T00:46:26.373Z,100899.40
2018-12-06T00:48:55.728Z,100903.23
2018-12-06T00:51:25.358Z,100918.73
2018-12-06T00:53:54.214Z,100913.05
2018-12-06T00:56:23.024Z,100916.19
2018-12-06T00:59:09.477Z,100916.11
2018-12-06T01:01:39.284Z,100915.31
2018-12-06T01:04:09.055Z,100910.65
2018-12-06T01:06:38.432Z,100909.49
2018-12-06T01:09:09.389Z,100897.13
2018-12-06T01:11:38.435Z,100906.09
2018-12-06T01:14:12.046Z,100905.87
2018-12-06T01:16:41.733Z,100900.58
2018-12-06T01:19:11.136Z,100904.39
2018-12-06T01:21:40.810Z,100895.44
2018-12-06T01:24:10.617Z,100893.80
2018-12-06T01:26:39.538Z,100896.03
2018-12-06T01:29:09.365Z,100894.30
2018-12-06T01:31:38.546Z,100905.92
2018-12-06T01:34:07.395Z,100893.72
2018-12-06T01:36:36.426Z,100888.84
2018-12-06T01:39:07.342Z,100888.84
2018-12-06T01:41:36.542Z,100890.86
2018-12-06T01:46:50.534Z,100877.92
2018-12-06T01:49:20.006Z,100882.72
2018-12-06T01:51:49.427Z,100880.56
2018-12-06T01:54:18.191Z,100877.09
2018-12-06T01:56:46.945Z,100875.14
2018-12-06T01:59:16.170Z,100875.97
2018-12-06T02:01:45.547Z,100878.27
2018-12-06T02:04:14.886Z,100878.48
2018-12-06T02:06:43.713Z,100879.31
2018-12-06T02:09:12.429Z,100864.77
2018-12-06T02:11:41.215Z,100876.98
2018-12-06T02:14:10.083Z,100882.20
2018-12-06T02:16:39.482Z,100868.31
2018-12-06T02:19:09.074Z,100868.59
2018-12-06T02:21:39.291Z,100855.08
2018-12-06T02:24:08.804Z,100856.92
2018-12-06T02:26:37.634Z,100862.55
2018-12-06T02:29:06.477Z,100859.48
2018-12-06T02:31:35.242Z,100864.34
2018-12-06T02:34:04.065Z,100862.53
2018-12-06T02:36:32.992Z,100869.81
2018-12-06T02:39:01.759Z,100851.63
2018-12-06T02:41:31.089Z,100855.61
2018-12-06T02:43:59.897Z,100853.16
2018-12-06T02:46:30.895Z,100844.10
2018-12-06T02:49:00.321Z,100845.08
2018-12-06T02:51:29.898Z,100847.37
2018-12-06T02:53:58.878Z,100839.79
2018-12-06T02:59:12.394Z,100834.15
2018-12-06T03:01:42.211Z,100820.72
2018-12-06T03:04:13.509Z,100829.27
2018-12-06T03:06:42.288Z,100830.73
2018-12-06T03:09:11.110Z,100820.34
2018-12-06T03:11:39.968Z,100822.02
2018-12-06T03:14:09.245Z,100815.75
2018-12-06T03:16:38.351Z,100820.20
2018-12-06T03:19:08.497Z,100817.21
2018-12-06T03:21:37.437Z,100812.55
2018-12-06T03:24:06.909Z,100814.08
2018-12-06T03:26:36.602Z,100813.59
2018-12-06T03:29:05.483Z,100815.55
2018-12-06T03:31:34.205Z,100811.92
2018-12-06T03:34:03.039Z,100819.38
2018-12-06T03:36:31.763Z,100819.86
2018-12-06T03:39:00.595Z,100817.21
2018-12-06T03:41:30.239Z,100817.91
2018-12-06T03:43:59.198Z,100807.81
2018-12-06T03:46:28.839Z,100802.83
2018-12-06T03:48:58.714Z,100802.03
2018-12-06T03:51:28.327Z,100803.49
2018-12-06T03:53:57.201Z,100793.75
2018-12-06T03:56:26.015Z,100796.21
2018-12-06T03:58:54.723Z,100795.41
2018-12-06T04:01:24.044Z,100800.53
2018-12-06T04:03:53.670Z,100804.84
2018-12-06T04:06:22.438Z,100801.70
2018-12-06T04:08:51.192Z,100805.33
2018-12-06T04:11:20.718Z,100806.66
2018-12-06T04:13:49.450Z,100800.84
2018-12-06T04:16:18.274Z,100809.45
2018-12-06T04:18:47.079Z,100811.60
2018-12-06T04:21:15.841Z,100810.77
2018-12-06T04:23:45.224Z,100815.89
2018-12-06T04:26:14.799Z,100812.55
2018-12-06T04:28:44.011Z,100814.51
2018-12-06T04:31:13.091Z,100814.65
2018-12-06T04:33:41.833Z,100814.45
2018-12-06T04:36:11.483Z,100815.56
2018-12-06T04:38:40.466Z,100817.34
2018-12-06T04:41:10.302Z,100814.36
2018-12-06T04:43:39.924Z,100813.81
2018-12-06T04:46:09.943Z,100813.12
2018-12-06T04:48:39.710Z,100805.16
2018-12-06T04:51:09.465Z,100813.37
2018-12-06T04:53:38.448Z,100807.19
2018-12-06T04:56:08.836Z,100801.83
2018-12-06T04:58:38.030Z,100807.44
2018-12-06T05:01:07.723Z,100792.91
2018-12-06T05:03:37.905Z,100799.86
2018-12-06T05:06:06.763Z,100802.13
2018-12-06T05:08:36.188Z,100802.34
2018-12-06T05:11:05.462Z,100795.97
2018-12-06T05:13:34.281Z,100796.19
2018-12-06T05:16:02.969Z,100797.27
2018-12-06T05:18:31.786Z,100796.84
2018-12-06T05:23:23.376Z,100795.13
2018-12-06T05:25:53.067Z,100796.25
2018-12-06T05:28:21.774Z,100791.16
2018-12-06T05:30:51.150Z,100801.94
2018-12-06T05:33:19.846Z,100803.40
2018-12-06T05:35:48.582Z,100804.19
2018-12-06T05:38:17.309Z,100801.12
2018-12-06T05:40:46.726Z,100803.97
2018-12-06T05:43:15.509Z,100802.38
2018-12-06T05:45:46.547Z,100801.47
2018-12-06T05:48:16.050Z,100795.45
2018-12-06T05:50:45.431Z,100795.50
2018-12-06T05:53:14.250Z,100791.63
2018-12-06T05:55:43.067Z,100786.84
2018-12-06T05:58:11.991Z,100791.91
2018-12-06T06:00:40.793Z,100789.53
2018-12-06T06:03:10.750Z,100793.55
2018-12-06T06:05:40.466Z,100788.22
2018-12-06T06:08:09.764Z,100787.78
2018-12-06T06:10:38.675Z,100789.31
2018-12-06T06:13:07.447Z,100794.02
2018-12-06T06:15:36.299Z,100792.88
2018-12-06T06:18:05.470Z,100784.56
2018-12-06T06:20:34.244Z,100780.78
2018-12-06T06:23:03.706Z,100777.61
2018-12-06T06:25:33.837Z,100780.20
2018-12-06T06:28:03.194Z,100787.44
2018-12-06T06:30:32.257Z,100787.70
2018-12-06T06:33:01.967Z,100788.09
2018-12-06T06:35:30.754Z,100782.47
2018-12-06T06:38:04.411Z,100781.28
2018-12-06T06:40:33.299Z,100782.24
2018-12-06T06:43:02.880Z,100783.20
2018-12-06T06:45:31.617Z,100783.02
2018-12-06T06:48:01.677Z,100785.43
2018-12-06T06:50:31.294Z,100790.13
2018-12-06T06:53:07.065Z,100792.19
2018-12-06T06:55:35.937Z,100785.41
2018-12-06T06:58:04.751Z,100784.34
2018-12-06T07:00:34.088Z,100786.75
2018-12-06T07:03:03.644Z,100775.41
2018-12-06T07:05:32.613Z,100780.84
2018-12-06T07:08:11.025Z,100782.42
2018-12-06T07:10:40.961Z,100783.73
2018-12-06T07:13:10.117Z,100774.90
2018-12-06T07:15:39.223Z,100776.76
2018-12-06T07:18:09.941Z,100768.76
2018-12-06T07:20:38.894Z,100774.63
2018-12-06T07:23:08.960Z,100776.56
2018-12-06T07:25:46.017Z,100774.05
2018-12-06T07:28:10.211Z,100774.18
2018-12-06T07:30:41.027Z,100777.58
2018-12-06T07:33:10.856Z,100779.02
2018-12-06T07:35:40.505Z,100780.11
2018-12-06T07:38:10.004Z,100773.88
2018-12-06T07:40:40.874Z,100772.69
2018-12-06T07:43:10.006Z,100777.95
2018-12-06T07:45:40.285Z,100775.09
2018-12-06T07:48:10.214Z,100765.66
2018-12-06T07:50:39.950Z,100766.01
2018-12-06T07:53:09.873Z,100769.95
2018-12-06T07:55:39.617Z,100769.48
2018-12-06T07:58:08.998Z,100764.21
2018-12-06T08:00:39.021Z,100764.81
2018-12-06T08:03:09.017Z,100761.94
2018-12-06T08:05:38.369Z,100760.97
2018-12-06T08:08:07.931Z,100762.99
2018-12-06T08:10:38.715Z,100768.48
2018-12-06T08:13:07.880Z,100768.72
2018-12-06T08:15:36.933Z,100761.01
2018-12-06T08:18:05.788Z,100763.39
2018-12-06T08:20:34.590Z,100760.62
2018-12-06T08:23:05.065Z,100759.05
2018-12-06T08:25:34.607Z,100765.73
2018-12-06T08:28:03.433Z,100764.13
2018-12-06T08:30:32.855Z,100768.66
2018-12-06T08:33:01.978Z,100775.22
2018-12-06T08:35:30.920Z,100775.64
2018-12-06T08:37:59.902Z,100771.52
2018-12-06T08:40:28.771Z,100767.62
2018-12-06T08:42:58.359Z,100760.65
2018-12-06T08:45:27.342Z,100761.58
2018-12-06T08:47:56.960Z,100768.87
2018-12-06T08:50:26.497Z,100773.59
2018-12-06T08:52:55.241Z,100770.13
2018-12-06T08:55:23.990Z,100773.80
2018-12-06T08:57:53.419Z,100776.39
2018-12-06T09:00:22.136Z,100773.63
2018-12-06T09:02:51.792Z,100771.90
2018-12-06T09:05:20.778Z,100769.03
2018-12-06T09:07:49.593Z,100769.25
2018-12-06T09:10:18.456Z,100766.05
2018-12-06T09:12:47.252Z,100770.92
2018-12-06T09:15:16.247Z,100768.63
2018-12-06T09:17:45.082Z,100765.16
2018-12-06T09:20:13.851Z,100772.02
2018-12-06T09:22:43.622Z,100771.83
2018-12-06T09:25:12.961Z,100761.34
2018-12-06T09:27:41.817Z,100755.89
2018-12-06T09:30:10.801Z,100739.70
2018-12-06T09:32:40.184Z,100753.13
2018-12-06T09:35:09.241Z,100756.98
2018-12-06T09:37:38.020Z,100748.17
2018-12-06T09:40:08.310Z,100744.94
2018-12-06T09:42:39.157Z,100739.17
2018-12-06T09:45:09.526Z,100734.93
2018-12-06T09:47:39.775Z,100745.67
2018-12-06T09:50:09.438Z,100751.72
2018-12-06T09:52:39.521Z,100749.08
2018-12-06T09:55:09.752Z,100743.30
2018-12-06T09:57:39.500Z,100747.83
2018-12-06T10:00:10.895Z,100735.52
2018-12-06T10:02:41.807Z,100722.93
2018-12-06T10:05:12.005Z,100734.72
2018-12-06T10:07:41.207Z,100727.59
2018-12-06T10:10:10.401Z,100716.05
2018-12-06T10:12:40.262Z,100714.72
2018-12-06T10:15:10.190Z,100708.30
2018-12-06T10:17:39.949Z,100705.22
2018-12-06T10:20:10.261Z,100701.47
2018-12-06T10:22:39.403Z,100692.08
2018-12-06T10:25:10.356Z,100688.45
2018-12-06T10:27:39.449Z,100688.66
2018-12-06T10:30:09.635Z,100683.52
2018-12-06T10:32:39.291Z,100684.98
2018-12-06T10:35:08.530Z,100681.25
2018-12-06T10:37:37.565Z,100685.06
2018-12-06T10:40:06.624Z,100670.24
2018-12-06T10:42:36.100Z,100668.15
2018-12-06T10:45:05.554Z,100665.53
2018-12-06T10:47:35.402Z,100649.32
2018-12-06T10:50:04.871Z,100658.20
2018-12-06T10:52:34.254Z,100651.73
2018-12-06T10:55:03.930Z,100644.58
2018-12-06T10:57:32.671Z,100650.75
2018-12-06T11:00:01.388Z,100642.42
2018-12-06T11:02:36.953Z,100643.41
2018-12-06T11:05:06.878Z,100640.25
2018-12-06T11:07:35.709Z,100635.73
2018-12-06T11:10:04.630Z,100635.39
2018-12-06T11:12:33.358Z,100632.61
2018-12-06T11:15:02.125Z,100631.91
2018-12-06T11:17:32.712Z,100625.94
2018-12-06T11:20:01.446Z,100620.17
2018-12-06T11:22:30.211Z,100615.02
2018-12-06T11:24:59.732Z,100609.94
2018-12-06T11:27:28.737Z,100608.62
2018-12-06T11:29:57.517Z,100613.22
2018-12-06T11:32:26.989Z,100609.45
2018-12-06T11:34:55.723Z,100621.00
2018-12-06T11:37:24.449Z,100612.18
2018-12-06T11:39:53.235Z,100611.84
2018-12-06T11:42:22.839Z,100609.38
2018-12-06T11:44:51.576Z,100606.87
2018-12-06T11:47:21.030Z,100605.50
2018-12-06T11:49:49.828Z,100603.34
2018-12-06T11:52:19.080Z,100595.70
2018-12-06T11:54:47.814Z,100589.93
2018-12-06T11:57:16.610Z,100587.43
2018-12-06T11:59:45.536Z,100585.13
2018-12-06T12:02:14.924Z,100583.66
2018-12-06T12:04:44.213Z,100584.70
2018-12-06T12:07:12.979Z,100583.72
2018-12-06T12:09:41.801Z,100581.77
2018-12-06T12:12:11.389Z,100574.69
2018-12-06T12:14:40.422Z,100569.31
2018-12-06T12:17:09.811Z,100572.30
2018-12-06T12:19:38.815Z,100570.63
2018-12-06T12:22:07.646Z,100563.48
2018-12-06T12:24:37.927Z,100576.41
2018-12-06T12:27:06.686Z,100573.86
2018-12-06T12:29:35.479Z,100574.33
2018-12-06T12:32:05.919Z,100574.47
2018-12-06T12:34:34.709Z,100577.26
2018-12-06T12:37:03.470Z,100580.25
2018-12-06T12:39:32.228Z,100579.41
2018-12-06T12:42:01.520Z,100585.11
2018-12-06T12:44:30.362Z,100586.32
2018-12-06T12:47:00.244Z,100583.62
2018-12-06T12:49:29.619Z,100573.52
2018-12-06T12:52:01.006Z,100575.75
2018-12-06T12:54:29.888Z,100571.59
2018-12-06T12:56:58.742Z,100570.10
2018-12-06T12:59:27.470Z,100565.65
2018-12-06T13:01:56.910Z,100562.52
2018-12-06T13:04:26.249Z,100556.23
2018-12-06T13:07:00.389Z,100561.23
2018-12-06T13:09:29.362Z,100553.79
2018-12-06T13:11:58.941Z,100559.62
2018-12-06T13:14:27.865Z,100552.88
2018-12-06T13:16:56.658Z,100546.95
2018-12-06T13:19:25.499Z,100545.31
2018-12-06T13:21:54.238Z,100541.53
2018-12-06T13:24:23.791Z,100529.59
2018-12-06T13:26:52.528Z,100526.82
2018-12-06T13:29:21.290Z,100522.55
2018-12-06T13:31:50.890Z,100523.03
2018-12-06T13:34:19.665Z,100514.08
2018-12-06T13:36:48.504Z,100507.63
2018-12-06T13:39:17.256Z,100502.48
2018-12-06T13:41:46.649Z,100506.79
2018-12-06T13:44:15.440Z,100505.18
2018-12-06T13:46:44.841Z,100493.09
2018-12-06T13:49:13.629Z,100499.98
2018-12-06T13:51:42.922Z,100493.19
2018-12-06T13:54:11.722Z,100483.59
2018-12-06T13:56:40.711Z,100469.56
2018-12-06T13:59:09.544Z,100459.81
2018-12-06T14:01:40.058Z,100458.30
2018-12-06T14:04:09.716Z,100457.95
2018-12-06T14:06:38.476Z,100441.56
2018-12-06T14:09:07.994Z,100448.36
2018-12-06T14:11:37.656Z,100432.47
2018-12-06T14:14:06.402Z,100430.78
2018-12-06T14:16:35.149Z,100436.42
2018-12-06T14:19:03.950Z,100430.92
2018-12-06T14:21:32.982Z,100438.22
2018-12-06T14:24:03.046Z,100433.30
2018-12-06T14:26:31.801Z,100421.42
2018-12-06T14:29:00.532Z,100423.56
2018-12-06T14:31:30.048Z,100414.38
2018-12-06T14:33:58.880Z,100419.36
2018-12-06T14:36:28.429Z,100421.66
2018-12-06T14:38:57.232Z,100417.51
2018-12-06T14:41:26.995Z,100408.27
2018-12-06T14:43:57.379Z,100401.81
2018-12-06T14:46:26.709Z,100395.34
2018-12-06T14:48:55.448Z,100398.14
2018-12-06T14:51:25.618Z,100394.16
2018-12-06T14:53:54.359Z,100398.27
2018-12-06T14:56:25.129Z,100397.23
2018-12-06T14:58:53.930Z,100397.09
2018-12-06T15:01:22.668Z,100397.44
2018-12-06T15:03:52.127Z,100399.09
2018-12-06T15:09:01.579Z,100391.38
2018-12-06T15:11:31.133Z,100387.91
2018-12-06T15:13:59.831Z,100388.90
2018-12-06T15:16:28.599Z,100401.66
2018-12-06T15:18:57.576Z,100397.90
2018-12-06T15:21:26.362Z,100404.70
2018-12-06T15:23:56.061Z,100397.77
2018-12-06T15:26:25.458Z,100400.26
2018-12-06T15:28:54.218Z,100392.19
2018-12-06T15:31:23.581Z,100406.77
2018-12-06T15:33:52.282Z,100404.41
2018-12-06T15:36:21.858Z,100399.42
2018-12-06T15:38:50.585Z,100401.77
2018-12-06T15:41:20.229Z,100401.33
2018-12-06T15:43:48.966Z,100401.86
2018-12-06T15:46:18.429Z,100395.42
2018-12-06T15:48:47.289Z,100394.30
2018-12-06T15:51:16.797Z,100389.35
2018-12-06T15:53:45.554Z,100384.41
2018-12-06T15:56:14.303Z,100390.67
2018-12-06T15:58:43.053Z,100375.06
2018-12-06T16:01:18.593Z,100387.78
2018-12-06T16:03:48.289Z,100384.11
2018-12-06T16:06:17.019Z,100376.34
2018-12-06T16:08:45.758Z,100365.28
2018-12-06T16:11:15.517Z,100359.81
2018-12-06T16:13:44.376Z,100350.72
2018-12-06T16:16:13.130Z,100346.44
2018-12-06T16:18:41.962Z,100339.84
2018-12-06T16:21:10.938Z,100338.87
2018-12-06T16:23:41.087Z,100328.50
2018-12-06T16:26:11.542Z,100332.46
2018-12-06T16:28:40.476Z,100333.63
2018-12-06T16:31:09.946Z,100334.80
2018-12-06T16:33:38.872Z,100337.59
2018-12-06T16:36:07.754Z,100340.23
2018-12-06T16:38:37.487Z,100330.99
2018-12-06T16:41:07.401Z,100330.84
2018-12-06T16:43:36.174Z,100328.21
2018-12-06T16:46:05.702Z,100326.59
2018-12-06T16:48:34.645Z,100325.65
2018-12-06T16:51:04.061Z,100315.27
2018-12-06T16:53:32.806Z,100304.86
2018-12-06T16:56:01.589Z,100304.21
2018-12-06T16:58:30.395Z,100287.53
2018-12-06T17:00:59.367Z,100279.56
2018-12-06T17:03:29.481Z,100276.73
2018-12-06T17:05:58.373Z,100271.75
2018-12-06T17:08:28.398Z,100263.52
2018-12-06T17:10:59.026Z,100260.43
2018-12-06T17:13:29.221Z,100253.30
2018-12-06T17:15:58.568Z,100247.03
2018-12-06T17:18:27.476Z,100240.28
2018-12-06T17:20:56.334Z,100244.27
2018-12-06T17:23:25.736Z,100236.84
2018-12-06T17:25:55.088Z,100231.70
2018-12-06T17:31:15.698Z,100208.70
2018-12-06T17:33:44.468Z,100199.60
2018-12-06T17:36:13.957Z,100190.52
2018-12-06T17:38:42.755Z,100187.69
2018-12-06T17:41:12.354Z,100172.33
2018-12-06T17:43:41.409Z,100162.41
2018-12-06T17:46:11.142Z,100167.84
2018-12-06T17:48:40.360Z,100160.56
2018-12-06T17:51:11.303Z,100169.66
2018-12-06T17:53:41.821Z,100169.16
2018-12-06T17:56:10.762Z,100160.08
2018-12-06T17:58:40.723Z,100137.48
2018-12-06T18:01:10.749Z,100136.16
2018-12-06T18:03:40.622Z,100140.45
2018-12-06T18:06:09.501Z,100134.34
2018-12-06T18:08:40.720Z,100128.38
2018-12-06T18:11:09.923Z,100126.76
2018-12-06T18:13:39.675Z,100122.64
2018-12-06T18:16:09.077Z,100113.27
2018-12-06T18:18:40.539Z,100098.37
2018-12-06T18:21:09.782Z,100105.34
2018-12-06T18:23:39.557Z,100109.33
2018-12-06T18:26:10.254Z,100102.08
2018-12-06T18:28:39.176Z,100095.83
2018-12-06T18:31:09.512Z,100094.16
2018-12-06T18:33:38.910Z,100094.66
2018-12-06T18:36:22.009Z,100085.08
2018-12-06T18:38:50.727Z,100082.28
2018-12-06T18:41:20.255Z,100077.49
2018-12-06T18:43:49.684Z,100071.86
2018-12-06T18:46:18.993Z,100069.73
2018-12-06T18:48:47.787Z,100059.68
2018-12-06T18:51:17.186Z,100055.06
2018-12-06T18:53:46.080Z,100046.64
2018-12-06T18:56:15.002Z,100052.59
2018-12-06T18:58:43.829Z,100036.88
2018-12-06T19:01:13.204Z,100040.02
2018-12-06T19:03:42.603Z,100037.37
2018-12-06T19:06:13.177Z,100033.59
2018-12-06T19:08:42.145Z,100027.81
2018-12-06T19:11:11.690Z,100016.59
2018-12-06T19:13:40.490Z,100017.40
2018-12-06T19:16:09.521Z,100011.95
2018-12-06T19:18:38.400Z,100006.52
2018-12-06T19:21:07.161Z,100007.99
2018-12-06T19:23:36.772Z,100005.84
2018-12-06T19:26:06.350Z,100005.34
2018-12-06T19:28:35.073Z,99999.41
2018-12-06T19:31:04.573Z,100002.22
2018-12-06T19:33:33.890Z,100001.56
2018-12-06T19:36:02.625Z,99992.97
2018-12-06T19:38:31.468Z,99994.28
2018-12-06T19:41:01.710Z,99988.50
2018-12-06T19:43:31.282Z,99977.11
2018-12-06T19:46:00.620Z,99968.03
2018-12-06T19:48:29.408Z,99949.34
2018-12-06T19:50:58.862Z,99949.54
2018-12-06T19:53:27.626Z,99952.98
2018-12-06T19:55:56.374Z,99938.64
2018-12-06T19:58:25.085Z,99945.56
2018-12-06T20:00:54.107Z,99931.34
2018-12-06T20:03:23.658Z,99919.95
2018-12-06T20:05:52.497Z,99916.82
2018-12-06T20:08:21.222Z,99913.19
2018-12-06T20:10:50.048Z,99903.61
2018-12-06T20:13:18.819Z,99894.20
2018-12-06T20:15:47.641Z,99884.30
2018-12-06T20:19:19.039Z,99880.66
2018-12-06T20:21:47.753Z,99877.33
2018-12-06T20:24:17.219Z,99876.00
2018-12-06T20:26:46.577Z,99875.02
2018-12-06T20:29:16.390Z,99871.55
2018-12-06T20:31:46.068Z,99865.77
2018-12-06T20:34:14.841Z,99863.26
2018-12-06T20:36:43.586Z,99854.17
2018-12-06T20:39:12.504Z,99845.58
2018-12-06T20:41:41.787Z,99838.48
2018-12-06T20:44:11.652Z,99829.55
2018-12-06T20:46:41.056Z,99828.06
2018-12-06T20:49:11.061Z,99819.93
2018-12-06T20:51:40.664Z,99812.16
2018-12-06T20:54:09.849Z,99809.34
2018-12-06T20:56:39.229Z,99800.09
2018-12-06T20:59:08.165Z,99794.80
2018-12-06T21:01:36.957Z,99799.09
2018-12-06T21:04:06.399Z,99796.78
2018-12-06T21:06:35.184Z,99792.98
2018-12-06T21:09:06.081Z,99791.45
2018-12-06T21:11:35.084Z,99792.97
2018-12-06T21:14:04.342Z,99775.78
2018-12-06T21:16:33.372Z,99780.55
2018-12-06T21:19:02.318Z,99768.64
2018-12-06T21:21:31.390Z,99766.20
2018-12-06T21:24:00.927Z,99760.58
2018-12-06T21:26:30.203Z,99757.27
2018-12-06T21:28:59.559Z,99746.98
2018-12-06T21:31:28.922Z,99732.27
2018-12-06T21:33:57.751Z,99727.48
2018-12-06T21:36:26.475Z,99709.84
2018-12-06T21:38:55.336Z,99706.54
2018-12-06T21:41:24.829Z,99702.90
2018-12-06T21:43:55.010Z,99704.39
2018-12-06T21:46:24.460Z,99704.56
2018-12-06T21:48:53.303Z,99701.09
2018-12-06T21:51:22.722Z,99689.52
2018-12-06T21:53:51.485Z,99692.32
2018-12-06T21:56:20.250Z,99679.11
2018-12-06T21:58:49.009Z,99670.03
2018-12-06T22:01:17.818Z,99667.88
2018-12-06T22:03:47.269Z,99654.88
2018-12-06T22:06:16.011Z,99649.77
2018-12-06T22:08:44.758Z,99647.45
2018-12-06T22:11:13.554Z,99642.16
2018-12-06T22:13:42.432Z,99631.58
2018-12-06T22:16:11.813Z,99627.12
2018-12-06T22:18:40.698Z,99623.33
2018-12-06T22:21:09.594Z,99619.03
2018-12-06T22:23:39.298Z,99616.39
2018-12-06T22:28:53.221Z,99603.34
2018-12-06T22:31:22.620Z,99598.70
2018-12-06T22:33:51.507Z,99585.83
2018-12-06T22:36:20.399Z,99589.64
2018-12-06T22:38:49.190Z,99582.87
2018-12-06T22:41:19.210Z,99577.42
2018-12-06T22:43:48.551Z,99577.42
2018-12-06T22:46:18.028Z,99574.77
2018-12-06T22:48:46.738Z,99568.02
2018-12-06T22:51:16.103Z,99563.76
2018-12-06T22:53:44.887Z,99557.81
2018-12-06T22:56:14.359Z,99560.30
2018-12-06T22:58:43.194Z,99556.84
2018-12-06T23:01:12.738Z,99554.84
2018-12-06T23:03:42.609Z,99555.52
2018-12-06T23:06:12.058Z,99554.02
2018-12-06T23:08:41.098Z,99551.55
2018-12-06T23:11:10.535Z,99540.17
2018-12-06T23:13:40.207Z,99546.27
2018-12-06T23:16:09.287Z,99545.81
2018-12-06T23:18:38.138Z,99537.43
2018-12-06T23:21:07.286Z,99538.83
2018-12-06T23:23:36.932Z,99544.45
2018-12-06T23:26:06.625Z,99535.00
2018-12-06T23:28:35.414Z,99534.88
2018-12-06T23:31:05.114Z,99530.09
2018-12-06T23:33:33.809Z,99527.77
2018-12-06T23:36:02.637Z,99518.69
2018-12-06T23:38:31.467Z,99513.23
2018-12-06T23:41:01.607Z,99514.88
2018-12-06T23:43:30.488Z,99510.59
2018-12-06T23:46:00.086Z,99499.88
2018-12-06T23:48:28.900Z,99492.12
2018-12-06T23:51:08.269Z,99486.98
2018-12-06T23:53:37.039Z,99477.91
2018-12-06T23:56:05.788Z,99461.23
2018-12-06T23:58:34.586Z,99452.02
